createdAt,value
2023-02-24T00:01:40.367Z,54.10
2023-02-24T00:04:12.531Z,52.88
2023-02-24T00:06:41.764Z,55.05
2023-02-24T00:09:20.122Z,54.22
2023-02-24T00:11:53.148Z,56.40
2023-02-24T00:14:20.419Z,55.25
2023-02-24T00:16:48.018Z,54.35
2023-02-24T00:19:17.875Z,55.97
2023-02-24T00:21:45.584Z,54.22
2023-02-24T00:24:13.290Z,55.58
2023-02-24T00:26:40.718Z,54.13
2023-02-24T00:29:10.671Z,51.50
2023-02-24T00:31:41.894Z,48.83
2023-02-24T00:34:12.674Z,50.30
2023-02-24T00:36:39.926Z,49.20
2023-02-24T00:39:09.636Z,44.85
2023-02-24T00:41:40.250Z,48.70
2023-02-24T00:44:12.720Z,44.72
2023-02-24T00:46:42.505Z,46.63
2023-02-24T00:49:13.240Z,45.92
2023-02-24T00:51:41.837Z,43.28
2023-02-24T00:54:10.366Z,40.85
2023-02-24T00:56:37.345Z,41.55
2023-02-24T00:59:04.260Z,38.97
2023-02-24T01:01:33.869Z,39.05
2023-02-24T01:04:11.125Z,39.28
2023-02-24T01:06:45.119Z,39.10
2023-02-24T01:09:15.138Z,40.22
2023-02-24T01:12:22.253Z,38.78
2023-02-24T01:14:52.765Z,36.20
2023-02-24T01:17:21.000Z,36.22
2023-02-24T01:19:49.759Z,36.08
2023-02-24T01:22:19.763Z,36.85
2023-02-24T01:24:47.549Z,38.22
2023-02-24T01:27:18.716Z,38.13
2023-02-24T01:29:49.328Z,38.08
2023-02-24T01:32:19.940Z,37.17
2023-02-24T01:34:48.059Z,36.45
2023-02-24T01:37:16.495Z,36.42
2023-02-24T01:39:45.893Z,35.95
2023-02-24T01:42:19.752Z,38.50
2023-02-24T01:44:47.658Z,40.53
2023-02-24T01:47:18.524Z,40.00
2023-02-24T01:49:47.704Z,38.80
2023-02-24T01:52:22.849Z,39.50
2023-02-24T01:54:55.161Z,38.72
2023-02-24T01:57:25.999Z,39.50
2023-02-24T01:59:55.206Z,38.63
2023-02-24T02:02:23.507Z,40.13
2023-02-24T02:04:57.436Z,38.53
2023-02-24T02:07:28.489Z,36.85
2023-02-24T02:10:00.363Z,39.58
2023-02-24T02:12:28.437Z,41.10
2023-02-24T02:14:59.505Z,38.78
2023-02-24T02:17:51.305Z,38.72
2023-02-24T02:20:42.366Z,39.35
2023-02-24T02:23:37.157Z,36.30
2023-02-24T02:26:10.865Z,39.67
2023-02-24T02:31:46.642Z,38.75
2023-02-24T02:34:45.330Z,38.90
2023-02-24T02:37:33.281Z,43.05
2023-02-24T02:40:15.576Z,46.17
2023-02-24T02:42:51.266Z,43.28
2023-02-24T02:45:24.384Z,44.30
2023-02-24T02:47:59.365Z,44.72
2023-02-24T02:50:46.079Z,43.00
2023-02-24T02:53:23.100Z,42.70
2023-02-24T02:56:28.768Z,43.58
2023-02-24T02:58:58.200Z,40.83
2023-02-24T03:01:30.037Z,44.30
2023-02-24T03:04:04.720Z,45.92
2023-02-24T03:06:33.695Z,44.92
2023-02-24T03:09:11.447Z,49.97
2023-02-24T03:11:44.318Z,48.67
2023-02-24T03:14:14.683Z,44.88
2023-02-24T03:16:46.141Z,44.38
2023-02-24T03:19:16.473Z,45.58
2023-02-24T03:21:46.144Z,44.47
2023-02-24T03:24:17.889Z,46.80
2023-02-24T03:26:56.458Z,48.30
2023-02-24T03:29:44.713Z,45.72
2023-02-24T03:32:25.319Z,45.17
2023-02-24T03:35:28.946Z,44.50
2023-02-24T03:37:59.531Z,45.38
2023-02-24T03:40:33.156Z,44.22
2023-02-24T03:43:10.086Z,44.72
2023-02-24T03:45:38.633Z,44.60
2023-02-24T03:48:08.507Z,44.72
2023-02-24T03:50:38.091Z,45.00
2023-02-24T03:53:43.502Z,46.08
2023-02-24T03:56:34.845Z,44.00
2023-02-24T03:59:29.128Z,42.58
2023-02-24T04:02:06.085Z,44.05
2023-02-24T04:04:57.249Z,42.95
2023-02-24T04:08:00.420Z,43.88
2023-02-24T04:10:53.624Z,44.83
2023-02-24T04:13:35.354Z,43.80
2023-02-24T04:16:28.252Z,43.75
2023-02-24T04:19:03.946Z,43.40
2023-02-24T04:21:34.634Z,44.53
2023-02-24T04:24:08.610Z,47.25
2023-02-24T04:26:40.513Z,47.88
2023-02-24T04:29:13.844Z,48.42
2023-02-24T04:31:41.454Z,46.87
2023-02-24T04:34:09.591Z,48.25
2023-02-24T04:36:39.438Z,48.47
2023-02-24T04:39:07.703Z,46.60
2023-02-24T04:41:35.843Z,49.08
2023-02-24T04:44:02.791Z,51.35
2023-02-24T04:46:32.431Z,49.88
2023-02-24T04:49:02.138Z,48.75
2023-02-24T04:51:31.819Z,48.75
2023-02-24T04:53:58.758Z,47.25
2023-02-24T04:56:25.732Z,49.17
2023-02-24T04:58:52.681Z,47.95
2023-02-24T05:01:19.918Z,47.58
2023-02-24T05:03:47.793Z,49.45
2023-02-24T05:06:17.713Z,48.35
2023-02-24T05:08:45.157Z,49.63
2023-02-24T05:11:16.483Z,47.90
2023-02-24T05:13:47.120Z,48.53
2023-02-24T05:16:17.342Z,48.88
2023-02-24T05:18:44.850Z,49.22
2023-02-24T05:21:36.375Z,50.63
2023-02-24T05:24:07.370Z,48.40
2023-02-24T05:26:37.067Z,48.08
2023-02-24T05:29:05.693Z,48.53
2023-02-24T05:31:32.797Z,47.85
2023-02-24T05:34:02.791Z,47.65
2023-02-24T05:36:35.501Z,45.08
2023-02-24T05:39:06.970Z,48.65
2023-02-24T05:41:36.117Z,46.20
2023-02-24T05:44:08.597Z,47.53
2023-02-24T05:46:38.962Z,45.17
2023-02-24T05:49:23.260Z,45.00
2023-02-24T05:51:55.637Z,47.08
2023-02-24T05:54:31.963Z,49.42
2023-02-24T05:57:12.026Z,46.30
2023-02-24T05:59:42.924Z,47.85
2023-02-24T06:02:12.996Z,48.60
2023-02-24T06:05:04.359Z,46.72
2023-02-24T06:07:34.711Z,44.92
2023-02-24T06:10:04.930Z,46.45
2023-02-24T06:12:34.510Z,44.10
2023-02-24T06:15:02.365Z,45.45
2023-02-24T06:17:29.326Z,44.75
2023-02-24T06:19:56.284Z,45.58
2023-02-24T06:22:24.953Z,46.65
2023-02-24T06:24:54.180Z,45.08
2023-02-24T06:27:21.718Z,47.30
2023-02-24T06:29:54.003Z,45.38
2023-02-24T06:32:26.202Z,48.67
2023-02-24T06:34:57.586Z,47.28
2023-02-24T06:37:25.028Z,47.42
2023-02-24T06:39:51.985Z,47.97
2023-02-24T06:42:19.085Z,49.53
2023-02-24T06:44:47.044Z,48.60
2023-02-24T06:47:14.763Z,49.53
2023-02-24T06:49:44.964Z,47.92
2023-02-24T06:52:18.402Z,49.35
2023-02-24T06:54:48.362Z,52.65
2023-02-24T06:57:15.282Z,49.47
2023-02-24T06:59:42.377Z,51.38
2023-02-24T07:02:11.083Z,50.50
2023-02-24T07:04:43.951Z,49.95
2023-02-24T07:07:14.319Z,50.75
2023-02-24T07:09:42.756Z,50.28
2023-02-24T07:12:11.200Z,49.85
2023-02-24T07:14:38.643Z,48.30
2023-02-24T07:17:06.504Z,50.50
2023-02-24T07:19:34.195Z,50.88
2023-02-24T07:22:03.703Z,49.13
2023-02-24T07:24:40.589Z,51.33
2023-02-24T07:27:23.517Z,52.28
2023-02-24T07:29:53.229Z,50.30
2023-02-24T07:32:22.475Z,54.35
2023-02-24T07:34:49.684Z,53.03
2023-02-24T07:37:16.973Z,51.38
2023-02-24T07:39:44.007Z,52.92
2023-02-24T07:42:15.065Z,52.97
2023-02-24T07:44:46.804Z,53.42
2023-02-24T07:47:15.930Z,55.67
2023-02-24T07:49:43.792Z,55.30
2023-02-24T07:52:11.644Z,53.75
2023-02-24T07:54:39.472Z,54.50
2023-02-24T07:57:13.362Z,54.53
2023-02-24T07:59:47.234Z,56.40
2023-02-24T08:04:48.236Z,54.78
2023-02-24T08:07:15.486Z,55.33
2023-02-24T08:09:45.812Z,54.38
2023-02-24T08:12:18.652Z,56.72
2023-02-24T08:14:51.572Z,56.63
2023-02-24T08:17:26.502Z,53.77
2023-02-24T08:20:15.593Z,55.05
2023-02-24T08:22:44.457Z,55.22
2023-02-24T08:25:19.061Z,55.72
2023-02-24T08:28:08.036Z,57.60
2023-02-24T08:30:38.868Z,56.63
2023-02-24T08:33:15.838Z,55.65
2023-02-24T08:35:45.096Z,56.28
2023-02-24T08:38:17.522Z,55.58
2023-02-24T08:40:51.879Z,55.67
2023-02-24T08:43:31.257Z,57.00
2023-02-24T08:46:05.478Z,58.03
2023-02-24T08:48:42.254Z,54.15
2023-02-24T08:51:35.156Z,56.63
2023-02-24T08:54:10.955Z,55.58
2023-02-24T08:56:43.537Z,63.08
2023-02-24T08:59:29.371Z,59.40
2023-02-24T09:02:17.489Z,62.60
2023-02-24T09:05:04.236Z,64.05
2023-02-24T09:07:42.189Z,62.13
2023-02-24T09:10:17.834Z,64.20
2023-02-24T09:12:46.082Z,65.30
2023-02-24T09:15:15.471Z,63.78
2023-02-24T09:17:44.749Z,63.38
2023-02-24T09:20:27.291Z,64.00
2023-02-24T09:23:03.606Z,62.63
2023-02-24T09:25:41.667Z,64.75
2023-02-24T09:28:17.474Z,64.15
2023-02-24T09:30:53.666Z,60.78
2023-02-24T09:33:39.198Z,63.83
2023-02-24T09:36:10.793Z,63.10
2023-02-24T09:39:00.747Z,65.00
2023-02-24T09:41:55.404Z,64.80
2023-02-24T09:44:34.448Z,66.50
2023-02-24T09:47:40.021Z,67.47
2023-02-24T09:50:55.108Z,63.65
2023-02-24T09:56:04.020Z,64.78
2023-02-24T09:58:43.101Z,63.35
2023-02-24T10:01:46.323Z,62.03
2023-02-24T10:04:36.167Z,63.38
2023-02-24T10:07:15.223Z,61.50
2023-02-24T10:10:20.752Z,63.72
2023-02-24T10:13:15.370Z,63.80
2023-02-24T10:15:58.626Z,65.30
2023-02-24T10:18:44.776Z,67.47
2023-02-24T10:21:48.384Z,69.90
2023-02-24T10:24:37.606Z,73.78
2023-02-24T10:27:25.081Z,71.55
2023-02-24T10:30:10.886Z,75.85
2023-02-24T10:32:53.685Z,71.75
2023-02-24T10:35:26.072Z,74.78
2023-02-24T10:37:54.002Z,75.50
2023-02-24T10:40:43.926Z,70.13
2023-02-24T10:43:17.851Z,70.05
2023-02-24T10:45:46.451Z,72.40
2023-02-24T10:48:40.808Z,72.60
2023-02-24T10:51:19.805Z,69.85
2023-02-24T10:54:09.442Z,71.82
2023-02-24T10:56:55.468Z,70.82
2023-02-24T10:59:25.441Z,72.38
2023-02-24T11:02:06.731Z,72.35
2023-02-24T11:05:04.380Z,73.70
2023-02-24T11:07:53.556Z,73.90
2023-02-24T11:10:26.382Z,72.43
2023-02-24T11:13:14.709Z,70.37
2023-02-24T11:16:07.459Z,69.63
2023-02-24T11:18:34.677Z,73.75
2023-02-24T11:21:04.958Z,71.13
2023-02-24T11:23:36.131Z,71.85
2023-02-24T11:26:16.622Z,69.60
2023-02-24T11:28:56.004Z,70.80
2023-02-24T11:31:26.456Z,74.00
2023-02-24T11:34:33.071Z,76.60
2023-02-24T11:37:17.717Z,76.45
2023-02-24T11:40:15.642Z,74.05
2023-02-24T11:43:03.235Z,68.47
2023-02-24T11:45:54.735Z,72.53
2023-02-24T11:48:27.499Z,70.03
2023-02-24T11:51:03.199Z,71.30
2023-02-24T11:54:06.680Z,69.85
2023-02-24T11:56:39.215Z,69.80
2023-02-24T11:59:12.471Z,73.22
2023-02-24T12:01:46.363Z,72.15
2023-02-24T12:04:43.507Z,70.57
2023-02-24T12:07:29.094Z,70.00
2023-02-24T12:10:14.436Z,70.50
2023-02-24T12:13:03.097Z,70.35
2023-02-24T12:16:00.069Z,68.07
2023-02-24T12:18:41.038Z,64.00
2023-02-24T12:21:38.133Z,66.82
2023-02-24T12:24:08.657Z,64.32
2023-02-24T12:26:47.934Z,64.18
2023-02-24T12:29:30.089Z,62.78
2023-02-24T12:32:22.469Z,62.45
2023-02-24T12:35:08.537Z,59.40
2023-02-24T12:37:35.447Z,59.90
2023-02-24T12:40:14.750Z,56.63
2023-02-24T12:43:15.841Z,59.78
2023-02-24T12:46:04.384Z,57.35
2023-02-24T12:49:03.064Z,57.40
2023-02-24T12:51:50.078Z,59.30
2023-02-24T12:54:47.444Z,59.85
2023-02-24T12:57:41.732Z,60.90
2023-02-24T13:00:32.429Z,61.17
2023-02-24T13:03:10.834Z,61.38
2023-02-24T13:05:47.703Z,58.90
2023-02-24T13:08:14.565Z,59.88
2023-02-24T13:10:50.049Z,59.95
2023-02-24T13:13:46.548Z,61.80
2023-02-24T13:16:13.659Z,60.30
2023-02-24T13:18:40.904Z,59.33
2023-02-24T13:21:22.814Z,58.30
2023-02-24T13:23:57.438Z,62.40
2023-02-24T13:26:26.281Z,61.45
2023-02-24T13:29:11.402Z,62.20
2023-02-24T13:31:51.120Z,62.00
2023-02-24T13:34:43.268Z,61.45
2023-02-24T13:37:11.514Z,78.82
2023-02-24T13:39:44.348Z,61.78
2023-02-24T13:42:20.360Z,60.17
2023-02-24T13:45:18.365Z,59.90
2023-02-24T13:48:13.546Z,60.88
2023-02-24T13:50:58.285Z,59.72
2023-02-24T13:53:54.068Z,58.45
2023-02-24T13:56:46.175Z,57.10
2023-02-24T13:59:38.487Z,59.08
2023-02-24T14:02:16.098Z,58.35
2023-02-24T14:04:55.221Z,58.55
2023-02-24T14:07:33.532Z,57.58
2023-02-24T14:10:07.234Z,58.97
2023-02-24T14:15:05.300Z,57.90
2023-02-24T14:17:36.025Z,61.13
2023-02-24T14:20:13.170Z,58.88
2023-02-24T14:22:47.370Z,57.53
2023-02-24T14:25:16.117Z,54.45
2023-02-24T14:27:45.243Z,54.85
2023-02-24T14:30:40.457Z,58.70
2023-02-24T14:33:18.068Z,58.78
2023-02-24T14:35:48.276Z,55.10
2023-02-24T14:38:36.216Z,57.00
2023-02-24T14:41:07.049Z,53.67
2023-02-24T14:43:41.885Z,55.00
2023-02-24T14:46:10.176Z,55.95
2023-02-24T14:48:37.505Z,56.40
2023-02-24T14:51:10.350Z,55.53
2023-02-24T14:53:43.498Z,55.17
2023-02-24T14:56:12.816Z,55.03
2023-02-24T14:58:46.796Z,53.65
2023-02-24T15:01:19.249Z,53.72
2023-02-24T15:03:49.687Z,52.20
2023-02-24T15:06:25.334Z,51.00
2023-02-24T15:09:06.241Z,49.03
2023-02-24T15:11:33.777Z,50.08
2023-02-24T15:14:07.310Z,50.35
2023-02-24T15:16:37.453Z,49.33
2023-02-24T15:19:04.663Z,48.33
2023-02-24T15:21:32.967Z,44.75
2023-02-24T15:24:03.403Z,46.30
2023-02-24T15:26:33.869Z,45.08
2023-02-24T15:29:03.257Z,45.53
2023-02-24T15:31:30.730Z,46.53
2023-02-24T15:34:03.321Z,44.28
2023-02-24T15:36:36.607Z,45.45
2023-02-24T15:39:07.421Z,43.33
2023-02-24T15:41:44.688Z,45.88
2023-02-24T15:44:32.692Z,44.42
2023-02-24T15:47:12.028Z,43.35
2023-02-24T15:49:38.936Z,47.15
2023-02-24T15:52:09.944Z,45.45
2023-02-24T15:54:39.025Z,43.85
2023-02-24T15:57:06.450Z,45.80
2023-02-24T15:59:34.013Z,47.13
2023-02-24T16:02:00.994Z,44.80
2023-02-24T16:04:28.100Z,45.60
2023-02-24T16:06:57.583Z,46.28
2023-02-24T16:09:37.093Z,47.10
2023-02-24T16:12:32.134Z,47.63
2023-02-24T16:15:05.941Z,48.40
2023-02-24T16:20:11.621Z,48.38
2023-02-24T16:22:38.600Z,46.25
2023-02-24T16:25:06.818Z,46.22
2023-02-24T16:27:34.512Z,48.47
2023-02-24T16:30:01.472Z,47.72
2023-02-24T16:32:28.626Z,46.72
2023-02-24T16:34:56.423Z,46.40
2023-02-24T16:37:30.032Z,47.00
2023-02-24T16:39:59.221Z,48.28
2023-02-24T16:42:26.194Z,50.58
2023-02-24T16:44:53.205Z,49.13
2023-02-24T16:47:24.325Z,50.08
2023-02-24T16:49:55.273Z,49.00
2023-02-24T16:52:23.469Z,51.08
2023-02-24T16:54:50.749Z,48.28
2023-02-24T16:57:17.720Z,49.15
2023-02-24T16:59:44.686Z,49.22
2023-02-24T17:02:20.719Z,45.80
2023-02-24T17:04:47.806Z,47.70
2023-02-24T17:07:16.187Z,49.85
2023-02-24T17:09:43.295Z,48.13
2023-02-24T17:12:13.542Z,49.72
2023-02-24T17:14:42.546Z,51.05
2023-02-24T17:17:09.633Z,49.55
2023-02-24T17:19:36.570Z,49.95
2023-02-24T17:22:04.554Z,51.30
2023-02-24T17:24:31.641Z,50.28
2023-02-24T17:27:00.595Z,50.15
2023-02-24T17:29:27.912Z,51.70
2023-02-24T17:31:55.039Z,52.75
2023-02-24T17:34:23.992Z,55.15
2023-02-24T17:36:50.984Z,51.58
2023-02-24T17:39:18.008Z,51.72
2023-02-24T17:41:45.464Z,53.15
2023-02-24T17:44:12.396Z,50.50
2023-02-24T17:46:39.487Z,53.78
2023-02-24T17:49:06.518Z,53.80
2023-02-24T17:51:33.561Z,54.30
2023-02-24T17:54:00.476Z,53.42
2023-02-24T17:56:27.687Z,54.30
2023-02-24T17:58:58.696Z,53.75
2023-02-24T18:01:27.389Z,53.40
2023-02-24T18:03:58.826Z,53.50
2023-02-24T18:06:26.401Z,53.28
2023-02-24T18:08:53.416Z,50.28
2023-02-24T18:11:20.656Z,52.42
2023-02-24T18:13:50.874Z,52.08
2023-02-24T18:16:18.263Z,53.28
2023-02-24T18:18:45.312Z,53.13
2023-02-24T18:21:12.284Z,52.00
2023-02-24T18:23:40.459Z,55.42
2023-02-24T18:26:10.265Z,53.92
2023-02-24T18:28:37.693Z,53.88
2023-02-24T18:31:19.260Z,52.35
2023-02-24T18:33:46.498Z,53.40
2023-02-24T18:36:14.105Z,54.95
2023-02-24T18:38:41.122Z,54.13
2023-02-24T18:41:10.480Z,57.22
2023-02-24T18:43:37.985Z,58.35
2023-02-24T18:46:07.910Z,59.38
2023-02-24T18:48:35.492Z,60.92
2023-02-24T18:51:03.270Z,62.72
2023-02-24T18:53:35.835Z,67.57
2023-02-24T18:56:16.861Z,65.50
2023-02-24T18:58:45.656Z,61.35
2023-02-24T19:01:36.777Z,61.08
2023-02-24T19:04:04.732Z,59.85
2023-02-24T19:06:33.037Z,61.30
2023-02-24T19:09:11.058Z,59.97
2023-02-24T19:11:40.097Z,61.38
2023-02-24T19:14:07.516Z,58.90
2023-02-24T19:16:34.917Z,59.28
2023-02-24T19:19:02.007Z,58.47
2023-02-24T19:21:31.204Z,57.00
2023-02-24T19:24:03.638Z,58.13
2023-02-24T19:26:30.908Z,58.85
2023-02-24T19:28:58.789Z,59.10
2023-02-24T19:31:30.652Z,59.65
2023-02-24T19:34:01.301Z,57.13
2023-02-24T19:36:30.126Z,59.78
2023-02-24T19:38:57.110Z,59.05
2023-02-24T19:41:24.797Z,61.40
2023-02-24T19:43:51.767Z,59.80
2023-02-24T19:46:19.524Z,61.70
2023-02-24T19:48:47.260Z,60.63
2023-02-24T19:51:21.577Z,60.38
2023-02-24T19:53:59.283Z,60.63
2023-02-24T19:56:29.229Z,61.10
2023-02-24T19:58:57.973Z,63.45
2023-02-24T20:01:26.657Z,61.20
2023-02-24T20:03:59.875Z,61.92
2023-02-24T20:06:33.010Z,68.60
2023-02-24T20:09:00.784Z,66.55
2023-02-24T20:11:32.925Z,66.60
2023-02-24T20:13:59.862Z,64.75
2023-02-24T20:16:31.986Z,63.20
2023-02-24T20:19:00.428Z,61.80
2023-02-24T20:21:28.271Z,61.88
2023-02-24T20:23:55.551Z,63.10
2023-02-24T20:26:22.801Z,68.85
2023-02-24T20:28:49.923Z,70.68
2023-02-24T20:31:19.461Z,67.60
2023-02-24T20:33:48.939Z,74.05
2023-02-24T20:36:22.414Z,66.25
2023-02-24T20:41:18.493Z,68.43
2023-02-24T20:43:45.811Z,65.35
2023-02-24T20:46:26.461Z,69.38
2023-02-24T20:48:57.132Z,67.70
2023-02-24T20:51:24.639Z,72.03
2023-02-24T20:53:57.845Z,68.47
2023-02-24T20:59:02.098Z,67.70
2023-02-24T21:01:30.875Z,71.25
2023-02-24T21:03:58.768Z,66.78
2023-02-24T21:06:26.621Z,68.40
2023-02-24T21:08:53.938Z,69.43
2023-02-24T21:11:21.949Z,69.88
2023-02-24T21:13:50.586Z,72.25
2023-02-24T21:16:19.548Z,69.63
2023-02-24T21:18:48.769Z,67.70
2023-02-24T21:21:16.965Z,69.75
2023-02-24T21:23:44.496Z,71.35
2023-02-24T21:26:12.124Z,67.38
2023-02-24T21:28:40.418Z,70.88
2023-02-24T21:31:09.804Z,68.97
2023-02-24T21:33:37.402Z,69.95
2023-02-24T21:36:07.218Z,69.68
2023-02-24T21:38:35.064Z,68.30
2023-02-24T21:41:04.090Z,65.03
2023-02-24T21:43:31.324Z,68.53
2023-02-24T21:46:05.592Z,65.65
2023-02-24T21:48:33.661Z,68.25
2023-02-24T21:51:03.911Z,70.47
2023-02-24T21:53:35.804Z,74.43
2023-02-24T21:56:24.767Z,69.70
2023-02-24T21:59:03.996Z,69.50
2023-02-24T22:01:36.772Z,72.85
2023-02-24T22:04:06.973Z,74.97
2023-02-24T22:06:35.826Z,68.05
2023-02-24T22:09:04.970Z,68.15
2023-02-24T22:11:35.285Z,71.05
2023-02-24T22:14:04.113Z,64.35
2023-02-24T22:16:31.147Z,64.57
2023-02-24T22:18:58.237Z,66.97
2023-02-24T22:21:28.021Z,65.65
2023-02-24T22:23:57.605Z,68.05
2023-02-24T22:26:26.783Z,65.30
2023-02-24T22:28:54.451Z,68.78
2023-02-24T22:31:23.578Z,63.33
2023-02-24T22:33:50.664Z,65.45
2023-02-24T22:36:25.281Z,66.20
2023-02-24T22:38:54.116Z,63.13
2023-02-24T22:41:23.877Z,62.92
2023-02-24T22:43:50.942Z,61.45
2023-02-24T22:46:22.217Z,62.55
2023-02-24T22:48:50.540Z,74.38
2023-02-24T22:51:18.369Z,62.90
2023-02-24T22:53:48.843Z,65.38
2023-02-24T22:56:18.502Z,64.05
2023-02-24T22:58:46.113Z,59.72
2023-02-24T23:01:16.409Z,62.15
2023-02-24T23:03:46.159Z,61.22
2023-02-24T23:06:16.350Z,59.80
2023-02-24T23:08:46.046Z,60.20
2023-02-24T23:11:18.492Z,59.40
2023-02-24T23:13:48.016Z,55.72
2023-02-24T23:16:19.264Z,58.38
2023-02-24T23:18:51.064Z,56.38
2023-02-24T23:21:24.971Z,55.90
2023-02-24T23:23:57.452Z,56.53
2023-02-24T23:26:32.682Z,55.00
2023-02-24T23:28:59.816Z,56.65
2023-02-24T23:31:27.549Z,52.03
2023-02-24T23:33:55.038Z,52.13
2023-02-24T23:36:23.911Z,54.15
2023-02-24T23:38:51.897Z,53.60
2023-02-24T23:41:18.994Z,55.60
2023-02-24T23:43:46.030Z,56.85
2023-02-24T23:46:13.686Z,59.60
2023-02-24T23:48:41.187Z,54.63
2023-02-24T23:51:12.479Z,55.22
2023-02-24T23:53:43.980Z,56.58
2023-02-24T23:56:18.821Z,55.50
2023-02-24T23:58:50.658Z,56.83
